sensor_id;sensor_type;location;lat;lon;timestamp;P1;durP1;ratioP1;P2;durP2;ratioP2
36449;SDS011;22475;51.390;7.180;2022-10-15T00:01:26;4.15;;;3.72;;
36449;SDS011;22475;51.390;7.180;2022-10-15T00:03:53;4.13;;;3.78;;
36449;SDS011;22475;51.390;7.180;2022-10-15T00:06:20;5.85;;;3.05;;
36449;SDS011;22475;51.390;7.180;2022-10-15T00:08:48;13.43;;;3.45;;
36449;SDS011;22475;51.390;7.180;2022-10-15T00:11:16;3.85;;;3.47;;
36449;SDS011;22475;51.390;7.180;2022-10-15T00:13:45;6.82;;;4.65;;
36449;SDS011;22475;51.390;7.180;2022-10-15T00:16:13;2.95;;;2.65;;
36449;SDS011;22475;51.390;7.180;2022-10-15T00:18:42;4.03;;;3.70;;
36449;SDS011;22475;51.390;7.180;2022-10-15T00:21:11;3.88;;;3.45;;
36449;SDS011;22475;51.390;7.180;2022-10-15T00:23:39;4.82;;;4.38;;
36449;SDS011;22475;51.390;7.180;2022-10-15T00:26:08;5.97;;;3.65;;
36449;SDS011;22475;51.390;7.180;2022-10-15T00:28:37;3.47;;;3.03;;
36449;SDS011;22475;51.390;7.180;2022-10-15T00:31:05;5.40;;;3.88;;
36449;SDS011;22475;51.390;7.180;2022-10-15T00:33:33;3.90;;;2.95;;
36449;SDS011;22475;51.390;7.180;2022-10-15T00:36:01;2.97;;;2.70;;
36449;SDS011;22475;51.390;7.180;2022-10-15T00:38:29;3.22;;;2.92;;
36449;SDS011;22475;51.390;7.180;2022-10-15T00:40:56;4.05;;;2.72;;
36449;SDS011;22475;51.390;7.180;2022-10-15T00:43:38;4.15;;;2.42;;
36449;SDS011;22475;51.390;7.180;2022-10-15T00:46:11;4.30;;;3.90;;
36449;SDS011;22475;51.390;7.180;2022-10-15T00:48:43;5.20;;;4.70;;
36449;SDS011;22475;51.390;7.180;2022-10-15T00:51:13;8.70;;;4.15;;
36449;SDS011;22475;51.390;7.180;2022-10-15T00:53:41;5.05;;;3.15;;
36449;SDS011;22475;51.390;7.180;2022-10-15T00:56:08;4.45;;;3.78;;
36449;SDS011;22475;51.390;7.180;2022-10-15T00:58:38;4.38;;;3.58;;
36449;SDS011;22475;51.390;7.180;2022-10-15T01:01:05;3.30;;;2.90;;
36449;SDS011;22475;51.390;7.180;2022-10-15T01:03:32;3.92;;;3.47;;
36449;SDS011;22475;51.390;7.180;2022-10-15T01:06:00;5.70;;;3.70;;
36449;SDS011;22475;51.390;7.180;2022-10-15T01:08:28;7.32;;;4.50;;
36449;SDS011;22475;51.390;7.180;2022-10-15T01:10:57;4.18;;;3.80;;
36449;SDS011;22475;51.390;7.180;2022-10-15T01:13:35;5.75;;;3.92;;
36449;SDS011;22475;51.390;7.180;2022-10-15T01:16:14;4.60;;;3.95;;
36449;SDS011;22475;51.390;7.180;2022-10-15T01:18:46;2.15;;;2.03;;
36449;SDS011;22475;51.390;7.180;2022-10-15T01:21:19;7.22;;;5.10;;
36449;SDS011;22475;51.390;7.180;2022-10-15T01:24:01;4.90;;;3.13;;
36449;SDS011;22475;51.390;7.180;2022-10-15T01:26:55;2.78;;;2.45;;
36449;SDS011;22475;51.390;7.180;2022-10-15T01:32:54;6.55;;;3.65;;
36449;SDS011;22475;51.390;7.180;2022-10-15T01:35:30;5.18;;;2.22;;
36449;SDS011;22475;51.390;7.180;2022-10-15T01:38:07;3.97;;;3.58;;
36449;SDS011;22475;51.390;7.180;2022-10-15T01:40:43;7.78;;;4.90;;
36449;SDS011;22475;51.390;7.180;2022-10-15T01:43:14;7.70;;;3.95;;
36449;SDS011;22475;51.390;7.180;2022-10-15T01:45:47;6.07;;;5.50;;
36449;SDS011;22475;51.390;7.180;2022-10-15T01:48:19;6.63;;;4.97;;
36449;SDS011;22475;51.390;7.180;2022-10-15T01:50:48;6.83;;;4.50;;
36449;SDS011;22475;51.390;7.180;2022-10-15T01:55:50;7.63;;;5.13;;
36449;SDS011;22475;51.390;7.180;2022-10-15T01:58:20;5.10;;;4.35;;
36449;SDS011;22475;51.390;7.180;2022-10-15T02:00:49;8.70;;;4.25;;
36449;SDS011;22475;51.390;7.180;2022-10-15T02:03:20;8.73;;;4.93;;
36449;SDS011;22475;51.390;7.180;2022-10-15T02:05:47;5.25;;;4.68;;
36449;SDS011;22475;51.390;7.180;2022-10-15T02:08:19;6.18;;;5.25;;
36449;SDS011;22475;51.390;7.180;2022-10-15T02:10:53;4.60;;;3.88;;
36449;SDS011;22475;51.390;7.180;2022-10-15T02:13:25;6.05;;;4.32;;
36449;SDS011;22475;51.390;7.180;2022-10-15T02:16:00;6.32;;;4.28;;
36449;SDS011;22475;51.390;7.180;2022-10-15T02:18:37;7.47;;;3.80;;
36449;SDS011;22475;51.390;7.180;2022-10-15T02:21:07;6.75;;;4.93;;
36449;SDS011;22475;51.390;7.180;2022-10-15T02:23:40;7.60;;;5.78;;
36449;SDS011;22475;51.390;7.180;2022-10-15T02:26:11;2.75;;;2.47;;
36449;SDS011;22475;51.390;7.180;2022-10-15T02:28:41;5.32;;;4.82;;
36449;SDS011;22475;51.390;7.180;2022-10-15T02:31:12;5.97;;;4.43;;
36449;SDS011;22475;51.390;7.180;2022-10-15T02:33:42;5.38;;;4.78;;
36449;SDS011;22475;51.390;7.180;2022-10-15T02:36:11;6.63;;;5.18;;
36449;SDS011;22475;51.390;7.180;2022-10-15T02:38:39;7.60;;;4.25;;
36449;SDS011;22475;51.390;7.180;2022-10-15T02:41:09;7.38;;;4.30;;
36449;SDS011;22475;51.390;7.180;2022-10-15T02:43:37;4.25;;;3.85;;
36449;SDS011;22475;51.390;7.180;2022-10-15T02:46:05;7.93;;;4.68;;
36449;SDS011;22475;51.390;7.180;2022-10-15T02:48:35;5.30;;;4.80;;
36449;SDS011;22475;51.390;7.180;2022-10-15T02:51:03;9.35;;;5.55;;
36449;SDS011;22475;51.390;7.180;2022-10-15T02:53:30;8.13;;;6.28;;
36449;SDS011;22475;51.390;7.180;2022-10-15T02:55:58;7.03;;;6.25;;
36449;SDS011;22475;51.390;7.180;2022-10-15T02:58:24;10.30;;;5.65;;
36449;SDS011;22475;51.390;7.180;2022-10-15T03:00:53;7.68;;;4.90;;
36449;SDS011;22475;51.390;7.180;2022-10-15T03:03:20;2.83;;;2.60;;
36449;SDS011;22475;51.390;7.180;2022-10-15T03:05:47;8.25;;;6.43;;
36449;SDS011;22475;51.390;7.180;2022-10-15T03:08:15;7.18;;;4.60;;
36449;SDS011;22475;51.390;7.180;2022-10-15T03:10:42;2.35;;;2.15;;
36449;SDS011;22475;51.390;7.180;2022-10-15T03:13:10;10.23;;;7.72;;
36449;SDS011;22475;51.390;7.180;2022-10-15T03:15:37;2.72;;;2.40;;
36449;SDS011;22475;51.390;7.180;2022-10-15T03:18:04;11.02;;;8.82;;
36449;SDS011;22475;51.390;7.180;2022-10-15T03:20:32;5.82;;;3.42;;
36449;SDS011;22475;51.390;7.180;2022-10-15T03:22:59;19.60;;;8.32;;
36449;SDS011;22475;51.390;7.180;2022-10-15T03:25:27;5.78;;;5.03;;
36449;SDS011;22475;51.390;7.180;2022-10-15T03:27:54;4.93;;;4.40;;
36449;SDS011;22475;51.390;7.180;2022-10-15T03:30:21;14.00;;;9.68;;
36449;SDS011;22475;51.390;7.180;2022-10-15T03:32:48;9.98;;;7.75;;
36449;SDS011;22475;51.390;7.180;2022-10-15T03:35:15;3.67;;;3.38;;
36449;SDS011;22475;51.390;7.180;2022-10-15T03:37:42;14.63;;;8.73;;
36449;SDS011;22475;51.390;7.180;2022-10-15T03:40:10;14.50;;;10.73;;
36449;SDS011;22475;51.390;7.180;2022-10-15T03:42:38;15.07;;;9.40;;
36449;SDS011;22475;51.390;7.180;2022-10-15T03:45:06;10.40;;;8.73;;
36449;SDS011;22475;51.390;7.180;2022-10-15T03:47:34;15.02;;;9.88;;
36449;SDS011;22475;51.390;7.180;2022-10-15T03:50:01;11.23;;;7.95;;
36449;SDS011;22475;51.390;7.180;2022-10-15T03:52:28;14.50;;;9.73;;
36449;SDS011;22475;51.390;7.180;2022-10-15T03:54:54;17.27;;;10.10;;
36449;SDS011;22475;51.390;7.180;2022-10-15T03:57:21;13.65;;;8.27;;
36449;SDS011;22475;51.390;7.180;2022-10-15T03:59:50;12.38;;;8.65;;
36449;SDS011;22475;51.390;7.180;2022-10-15T04:02:16;15.35;;;9.10;;
36449;SDS011;22475;51.390;7.180;2022-10-15T04:04:43;3.40;;;3.10;;
36449;SDS011;22475;51.390;7.180;2022-10-15T04:07:10;17.02;;;10.55;;
36449;SDS011;22475;51.390;7.180;2022-10-15T04:09:37;13.68;;;9.18;;
36449;SDS011;22475;51.390;7.180;2022-10-15T04:12:04;19.30;;;11.23;;
36449;SDS011;22475;51.390;7.180;2022-10-15T04:14:31;15.02;;;8.55;;
36449;SDS011;22475;51.390;7.180;2022-10-15T04:16:59;9.00;;;7.70;;
36449;SDS011;22475;51.390;7.180;2022-10-15T04:19:26;8.68;;;5.93;;
36449;SDS011;22475;51.390;7.180;2022-10-15T04:21:54;10.73;;;8.70;;
36449;SDS011;22475;51.390;7.180;2022-10-15T04:24:21;6.13;;;4.63;;
36449;SDS011;22475;51.390;7.180;2022-10-15T04:26:48;8.48;;;7.57;;
36449;SDS011;22475;51.390;7.180;2022-10-15T04:29:15;10.07;;;6.32;;
36449;SDS011;22475;51.390;7.180;2022-10-15T04:31:42;17.40;;;11.55;;
36449;SDS011;22475;51.390;7.180;2022-10-15T04:34:11;3.90;;;3.60;;
36449;SDS011;22475;51.390;7.180;2022-10-15T04:36:38;6.95;;;3.40;;
36449;SDS011;22475;51.390;7.180;2022-10-15T04:39:05;5.78;;;5.22;;
36449;SDS011;22475;51.390;7.180;2022-10-15T04:41:31;18.80;;;11.60;;
36449;SDS011;22475;51.390;7.180;2022-10-15T04:43:58;9.52;;;8.02;;
36449;SDS011;22475;51.390;7.180;2022-10-15T04:46:25;29.83;;;14.55;;
36449;SDS011;22475;51.390;7.180;2022-10-15T04:48:52;19.60;;;12.13;;
36449;SDS011;22475;51.390;7.180;2022-10-15T04:51:23;18.92;;;11.25;;
36449;SDS011;22475;51.390;7.180;2022-10-15T04:53:51;21.85;;;13.57;;
36449;SDS011;22475;51.390;7.180;2022-10-15T04:56:18;19.20;;;13.07;;
36449;SDS011;22475;51.390;7.180;2022-10-15T04:58:46;21.00;;;12.90;;
36449;SDS011;22475;51.390;7.180;2022-10-15T05:01:15;25.10;;;14.57;;
36449;SDS011;22475;51.390;7.180;2022-10-15T05:03:44;26.02;;;15.00;;
36449;SDS011;22475;51.390;7.180;2022-10-15T05:06:14;14.35;;;10.30;;
36449;SDS011;22475;51.390;7.180;2022-10-15T05:08:43;20.20;;;13.32;;
36449;SDS011;22475;51.390;7.180;2022-10-15T05:11:12;13.50;;;10.40;;
36449;SDS011;22475;51.390;7.180;2022-10-15T05:13:40;19.75;;;14.20;;
36449;SDS011;22475;51.390;7.180;2022-10-15T05:16:08;13.90;;;10.45;;
36449;SDS011;22475;51.390;7.180;2022-10-15T05:18:37;7.05;;;5.60;;
36449;SDS011;22475;51.390;7.180;2022-10-15T05:21:04;16.27;;;11.23;;
36449;SDS011;22475;51.390;7.180;2022-10-15T05:23:32;23.17;;;13.30;;
36449;SDS011;22475;51.390;7.180;2022-10-15T05:26:01;9.00;;;5.38;;
36449;SDS011;22475;51.390;7.180;2022-10-15T05:28:30;12.80;;;9.23;;
36449;SDS011;22475;51.390;7.180;2022-10-15T05:31:02;5.15;;;4.63;;
36449;SDS011;22475;51.390;7.180;2022-10-15T05:33:29;6.55;;;5.68;;
36449;SDS011;22475;51.390;7.180;2022-10-15T05:36:06;15.25;;;10.95;;
36449;SDS011;22475;51.390;7.180;2022-10-15T05:38:33;12.60;;;8.43;;
36449;SDS011;22475;51.390;7.180;2022-10-15T05:41:01;5.10;;;4.60;;
36449;SDS011;22475;51.390;7.180;2022-10-15T05:43:28;17.90;;;9.60;;
36449;SDS011;22475;51.390;7.180;2022-10-15T05:45:55;4.85;;;4.35;;
36449;SDS011;22475;51.390;7.180;2022-10-15T05:48:22;8.07;;;4.30;;
36449;SDS011;22475;51.390;7.180;2022-10-15T05:50:49;14.70;;;9.50;;
36449;SDS011;22475;51.390;7.180;2022-10-15T05:53:16;23.33;;;14.23;;
36449;SDS011;22475;51.390;7.180;2022-10-15T05:55:43;15.88;;;10.63;;
36449;SDS011;22475;51.390;7.180;2022-10-15T05:58:12;7.15;;;4.60;;
36449;SDS011;22475;51.390;7.180;2022-10-15T06:00:39;5.40;;;4.63;;
36449;SDS011;22475;51.390;7.180;2022-10-15T06:03:05;8.48;;;4.60;;
36449;SDS011;22475;51.390;7.180;2022-10-15T06:05:35;22.38;;;12.55;;
36449;SDS011;22475;51.390;7.180;2022-10-15T06:08:02;25.10;;;13.55;;
36449;SDS011;22475;51.390;7.180;2022-10-15T06:10:29;13.65;;;10.05;;
36449;SDS011;22475;51.390;7.180;2022-10-15T06:12:59;12.23;;;8.45;;
36449;SDS011;22475;51.390;7.180;2022-10-15T06:15:28;10.75;;;8.48;;
36449;SDS011;22475;51.390;7.180;2022-10-15T06:17:55;20.05;;;10.30;;
36449;SDS011;22475;51.390;7.180;2022-10-15T06:20:21;6.07;;;4.43;;
36449;SDS011;22475;51.390;7.180;2022-10-15T06:22:48;14.20;;;9.45;;
36449;SDS011;22475;51.390;7.180;2022-10-15T06:25:15;9.57;;;7.97;;
36449;SDS011;22475;51.390;7.180;2022-10-15T06:27:42;12.57;;;9.05;;
36449;SDS011;22475;51.390;7.180;2022-10-15T06:30:09;6.60;;;5.30;;
36449;SDS011;22475;51.390;7.180;2022-10-15T06:32:38;12.00;;;8.82;;
36449;SDS011;22475;51.390;7.180;2022-10-15T06:35:05;5.25;;;4.35;;
36449;SDS011;22475;51.390;7.180;2022-10-15T06:37:32;9.25;;;8.32;;
36449;SDS011;22475;51.390;7.180;2022-10-15T06:39:59;10.48;;;9.35;;
36449;SDS011;22475;51.390;7.180;2022-10-15T06:42:26;12.18;;;9.02;;
36449;SDS011;22475;51.390;7.180;2022-10-15T06:44:53;6.10;;;5.30;;
36449;SDS011;22475;51.390;7.180;2022-10-15T06:47:20;4.85;;;4.43;;
36449;SDS011;22475;51.390;7.180;2022-10-15T06:49:48;15.30;;;10.27;;
36449;SDS011;22475;51.390;7.180;2022-10-15T06:52:15;9.63;;;8.13;;
36449;SDS011;22475;51.390;7.180;2022-10-15T06:54:42;14.63;;;9.43;;
36449;SDS011;22475;51.390;7.180;2022-10-15T06:57:09;8.30;;;6.43;;
36449;SDS011;22475;51.390;7.180;2022-10-15T06:59:36;12.77;;;8.10;;
36449;SDS011;22475;51.390;7.180;2022-10-15T07:02:03;19.92;;;12.88;;
36449;SDS011;22475;51.390;7.180;2022-10-15T07:04:30;7.38;;;5.13;;
36449;SDS011;22475;51.390;7.180;2022-10-15T07:06:58;5.18;;;4.78;;
36449;SDS011;22475;51.390;7.180;2022-10-15T07:09:25;11.90;;;7.93;;
36449;SDS011;22475;51.390;7.180;2022-10-15T07:11:52;5.75;;;5.10;;
36449;SDS011;22475;51.390;7.180;2022-10-15T07:14:19;10.05;;;8.40;;
36449;SDS011;22475;51.390;7.180;2022-10-15T07:16:45;12.00;;;9.90;;
36449;SDS011;22475;51.390;7.180;2022-10-15T07:19:12;6.30;;;5.50;;
36449;SDS011;22475;51.390;7.180;2022-10-15T07:21:40;16.05;;;12.00;;
36449;SDS011;22475;51.390;7.180;2022-10-15T07:24:08;14.80;;;10.20;;
36449;SDS011;22475;51.390;7.180;2022-10-15T07:26:36;19.95;;;12.20;;
36449;SDS011;22475;51.390;7.180;2022-10-15T07:29:02;17.20;;;10.70;;
36449;SDS011;22475;51.390;7.180;2022-10-15T07:31:30;18.83;;;13.02;;
36449;SDS011;22475;51.390;7.180;2022-10-15T07:33:57;14.05;;;8.93;;
36449;SDS011;22475;51.390;7.180;2022-10-15T07:36:24;11.45;;;8.70;;
36449;SDS011;22475;51.390;7.180;2022-10-15T07:38:51;20.85;;;11.48;;
36449;SDS011;22475;51.390;7.180;2022-10-15T07:41:20;6.50;;;5.97;;
36449;SDS011;22475;51.390;7.180;2022-10-15T07:43:47;21.17;;;14.18;;
36449;SDS011;22475;51.390;7.180;2022-10-15T07:46:17;13.32;;;10.38;;
36449;SDS011;22475;51.390;7.180;2022-10-15T07:48:44;23.08;;;13.43;;
36449;SDS011;22475;51.390;7.180;2022-10-15T07:51:11;27.55;;;17.50;;
36449;SDS011;22475;51.390;7.180;2022-10-15T07:53:38;14.13;;;10.43;;
36449;SDS011;22475;51.390;7.180;2022-10-15T07:56:06;6.60;;;6.00;;
36449;SDS011;22475;51.390;7.180;2022-10-15T07:58:37;17.77;;;12.05;;
36449;SDS011;22475;51.390;7.180;2022-10-15T08:01:04;8.55;;;7.68;;
36449;SDS011;22475;51.390;7.180;2022-10-15T08:03:32;17.63;;;11.88;;
36449;SDS011;22475;51.390;7.180;2022-10-15T08:05:59;20.48;;;12.88;;
36449;SDS011;22475;51.390;7.180;2022-10-15T08:08:27;15.32;;;9.10;;
36449;SDS011;22475;51.390;7.180;2022-10-15T08:10:54;18.33;;;11.65;;
36449;SDS011;22475;51.390;7.180;2022-10-15T08:13:21;20.80;;;13.15;;
36449;SDS011;22475;51.390;7.180;2022-10-15T08:15:49;11.70;;;6.68;;
36449;SDS011;22475;51.390;7.180;2022-10-15T08:18:16;10.77;;;7.88;;
36449;SDS011;22475;51.390;7.180;2022-10-15T08:20:43;11.80;;;8.90;;
36449;SDS011;22475;51.390;7.180;2022-10-15T08:23:12;10.65;;;7.68;;
36449;SDS011;22475;51.390;7.180;2022-10-15T08:25:40;8.10;;;7.20;;
36449;SDS011;22475;51.390;7.180;2022-10-15T08:28:07;9.27;;;8.25;;
36449;SDS011;22475;51.390;7.180;2022-10-15T08:30:34;6.35;;;5.78;;
36449;SDS011;22475;51.390;7.180;2022-10-15T08:33:03;6.72;;;6.03;;
36449;SDS011;22475;51.390;7.180;2022-10-15T08:35:30;9.05;;;6.15;;
36449;SDS011;22475;51.390;7.180;2022-10-15T08:37:59;5.63;;;5.07;;
36449;SDS011;22475;51.390;7.180;2022-10-15T08:40:26;9.75;;;5.13;;
36449;SDS011;22475;51.390;7.180;2022-10-15T08:42:54;6.05;;;5.45;;
36449;SDS011;22475;51.390;7.180;2022-10-15T08:45:23;5.63;;;4.93;;
36449;SDS011;22475;51.390;7.180;2022-10-15T08:47:56;4.95;;;4.53;;
36449;SDS011;22475;51.390;7.180;2022-10-15T08:50:32;4.55;;;4.13;;
36449;SDS011;22475;51.390;7.180;2022-10-15T08:53:04;4.63;;;4.22;;
36449;SDS011;22475;51.390;7.180;2022-10-15T08:55:32;6.50;;;4.38;;
36449;SDS011;22475;51.390;7.180;2022-10-15T08:58:04;5.13;;;4.68;;
36449;SDS011;22475;51.390;7.180;2022-10-15T09:00:40;4.65;;;4.15;;
36449;SDS011;22475;51.390;7.180;2022-10-15T09:03:10;6.90;;;3.80;;
36449;SDS011;22475;51.390;7.180;2022-10-15T09:05:56;3.60;;;3.30;;
36449;SDS011;22475;51.390;7.180;2022-10-15T09:08:35;4.13;;;3.42;;
36449;SDS011;22475;51.390;7.180;2022-10-15T09:11:10;2.75;;;2.53;;
36449;SDS011;22475;51.390;7.180;2022-10-15T09:13:42;4.78;;;3.35;;
36449;SDS011;22475;51.390;7.180;2022-10-15T09:16:11;2.92;;;2.72;;
36449;SDS011;22475;51.390;7.180;2022-10-15T09:21:12;1.95;;;1.85;;
36449;SDS011;22475;51.390;7.180;2022-10-15T09:23:41;6.57;;;2.10;;
36449;SDS011;22475;51.390;7.180;2022-10-15T09:26:16;2.97;;;2.65;;
36449;SDS011;22475;51.390;7.180;2022-10-15T09:28:51;2.00;;;1.90;;
36449;SDS011;22475;51.390;7.180;2022-10-15T09:31:24;1.20;;;1.20;;
36449;SDS011;22475;51.390;7.180;2022-10-15T09:33:56;1.50;;;1.40;;
36449;SDS011;22475;51.390;7.180;2022-10-15T09:36:33;3.67;;;1.90;;
36449;SDS011;22475;51.390;7.180;2022-10-15T09:39:09;1.20;;;1.17;;
36449;SDS011;22475;51.390;7.180;2022-10-15T09:41:49;1.45;;;1.15;;
36449;SDS011;22475;51.390;7.180;2022-10-15T09:44:26;2.38;;;1.70;;
36449;SDS011;22475;51.390;7.180;2022-10-15T09:46:57;3.97;;;1.48;;
36449;SDS011;22475;51.390;7.180;2022-10-15T09:49:26;3.50;;;1.30;;
36449;SDS011;22475;51.390;7.180;2022-10-15T09:51:56;1.92;;;1.80;;
36449;SDS011;22475;51.390;7.180;2022-10-15T09:54:33;3.80;;;1.67;;
36449;SDS011;22475;51.390;7.180;2022-10-15T09:57:09;4.93;;;1.65;;
36449;SDS011;22475;51.390;7.180;2022-10-15T09:59:37;1.75;;;1.38;;
36449;SDS011;22475;51.390;7.180;2022-10-15T10:02:18;0.70;;;0.70;;
36449;SDS011;22475;51.390;7.180;2022-10-15T10:04:46;2.95;;;0.82;;
36449;SDS011;22475;51.390;7.180;2022-10-15T10:07:28;3.60;;;0.88;;
36449;SDS011;22475;51.390;7.180;2022-10-15T10:09:56;2.17;;;0.80;;
36449;SDS011;22475;51.390;7.180;2022-10-15T10:12:26;2.42;;;0.95;;
36449;SDS011;22475;51.390;7.180;2022-10-15T10:14:54;5.22;;;0.88;;
36449;SDS011;22475;51.390;7.180;2022-10-15T10:17:24;0.80;;;0.80;;
36449;SDS011;22475;51.390;7.180;2022-10-15T10:20:02;3.85;;;0.90;;
36449;SDS011;22475;51.390;7.180;2022-10-15T10:22:42;2.15;;;0.68;;
36449;SDS011;22475;51.390;7.180;2022-10-15T10:28:04;1.58;;;0.70;;
36449;SDS011;22475;51.390;7.180;2022-10-15T10:30:42;0.82;;;0.40;;
36449;SDS011;22475;51.390;7.180;2022-10-15T10:33:18;2.08;;;1.13;;
36449;SDS011;22475;51.390;7.180;2022-10-15T10:35:51;0.52;;;0.50;;
36449;SDS011;22475;51.390;7.180;2022-10-15T10:38:20;0.70;;;0.20;;
36449;SDS011;22475;51.390;7.180;2022-10-15T10:40:50;0.45;;;0.30;;
36449;SDS011;22475;51.390;7.180;2022-10-15T10:43:18;6.28;;;0.52;;
36449;SDS011;22475;51.390;7.180;2022-10-15T10:45:54;0.85;;;0.50;;
36449;SDS011;22475;51.390;7.180;2022-10-15T10:48:23;0.50;;;0.45;;
36449;SDS011;22475;51.390;7.180;2022-10-15T10:51:02;0.30;;;0.30;;
36449;SDS011;22475;51.390;7.180;2022-10-15T10:53:32;0.75;;;0.75;;
36449;SDS011;22475;51.390;7.180;2022-10-15T10:56:03;1.33;;;0.40;;
36449;SDS011;22475;51.390;7.180;2022-10-15T10:58:34;0.52;;;0.40;;
36449;SDS011;22475;51.390;7.180;2022-10-15T11:01:01;0.60;;;0.40;;
36449;SDS011;22475;51.390;7.180;2022-10-15T11:03:32;5.45;;;0.40;;
36449;SDS011;22475;51.390;7.180;2022-10-15T11:08:59;0.40;;;0.30;;
36449;SDS011;22475;51.390;7.180;2022-10-15T11:11:36;0.20;;;0.20;;
36449;SDS011;22475;51.390;7.180;2022-10-15T11:14:14;0.35;;;0.35;;
36449;SDS011;22475;51.390;7.180;2022-10-15T11:19:24;1.38;;;0.45;;
36449;SDS011;22475;51.390;7.180;2022-10-15T11:22:03;0.38;;;0.38;;
36449;SDS011;22475;51.390;7.180;2022-10-15T11:24:45;0.22;;;0.22;;
36449;SDS011;22475;51.390;7.180;2022-10-15T11:27:21;0.32;;;0.32;;
36449;SDS011;22475;51.390;7.180;2022-10-15T11:30:03;0.28;;;0.28;;
36449;SDS011;22475;51.390;7.180;2022-10-15T11:32:37;0.38;;;0.38;;
36449;SDS011;22475;51.390;7.180;2022-10-15T11:35:22;0.95;;;0.40;;
36449;SDS011;22475;51.390;7.180;2022-10-15T11:38:02;0.40;;;0.20;;
36449;SDS011;22475;51.390;7.180;2022-10-15T11:40:41;0.17;;;0.17;;
36449;SDS011;22475;51.390;7.180;2022-10-15T11:43:21;0.52;;;0.30;;
36449;SDS011;22475;51.390;7.180;2022-10-15T11:45:59;0.93;;;0.25;;
36449;SDS011;22475;51.390;7.180;2022-10-15T11:48:36;0.68;;;0.30;;
36449;SDS011;22475;51.390;7.180;2022-10-15T11:51:11;0.20;;;0.20;;
36449;SDS011;22475;51.390;7.180;2022-10-15T11:53:57;3.38;;;0.60;;
36449;SDS011;22475;51.390;7.180;2022-10-15T11:56:44;0.52;;;0.50;;
36449;SDS011;22475;51.390;7.180;2022-10-15T11:59:16;0.30;;;0.30;;
36449;SDS011;22475;51.390;7.180;2022-10-15T12:01:54;0.40;;;0.40;;
36449;SDS011;22475;51.390;7.180;2022-10-15T12:04:29;0.73;;;0.30;;
36449;SDS011;22475;51.390;7.180;2022-10-15T12:07:02;1.85;;;0.40;;
36449;SDS011;22475;51.390;7.180;2022-10-15T12:09:33;0.10;;;0.10;;
36449;SDS011;22475;51.390;7.180;2022-10-15T12:12:05;0.40;;;0.40;;
36449;SDS011;22475;51.390;7.180;2022-10-15T12:14:37;2.00;;;0.43;;
36449;SDS011;22475;51.390;7.180;2022-10-15T12:17:10;0.20;;;0.20;;
36449;SDS011;22475;51.390;7.180;2022-10-15T12:19:45;0.38;;;0.22;;
36449;SDS011;22475;51.390;7.180;2022-10-15T12:22:30;0.30;;;0.30;;
36449;SDS011;22475;51.390;7.180;2022-10-15T12:24:58;2.15;;;0.20;;
36449;SDS011;22475;51.390;7.180;2022-10-15T12:27:28;3.22;;;0.40;;
36449;SDS011;22475;51.390;7.180;2022-10-15T12:32:52;0.20;;;0.20;;
36449;SDS011;22475;51.390;7.180;2022-10-15T12:35:23;0.10;;;0.10;;
36449;SDS011;22475;51.390;7.180;2022-10-15T12:37:57;1.58;;;0.40;;
36449;SDS011;22475;51.390;7.180;2022-10-15T12:40:47;0.30;;;0.30;;
36449;SDS011;22475;51.390;7.180;2022-10-15T12:43:23;0.32;;;0.20;;
36449;SDS011;22475;51.390;7.180;2022-10-15T12:45:52;0.57;;;0.20;;
36449;SDS011;22475;51.390;7.180;2022-10-15T12:48:28;2.10;;;0.30;;
36449;SDS011;22475;51.390;7.180;2022-10-15T12:57:00;0.38;;;0.38;;
36449;SDS011;22475;51.390;7.180;2022-10-15T13:02:28;0.22;;;0.15;;
36449;SDS011;22475;51.390;7.180;2022-10-15T13:05:00;0.28;;;0.25;;
36449;SDS011;22475;51.390;7.180;2022-10-15T13:07:27;0.40;;;0.40;;
36449;SDS011;22475;51.390;7.180;2022-10-15T13:09:54;0.30;;;0.30;;
36449;SDS011;22475;51.390;7.180;2022-10-15T13:12:22;0.30;;;0.25;;
36449;SDS011;22475;51.390;7.180;2022-10-15T13:14:53;0.25;;;0.22;;
36449;SDS011;22475;51.390;7.180;2022-10-15T13:17:23;2.38;;;0.28;;
36449;SDS011;22475;51.390;7.180;2022-10-15T13:19:51;0.55;;;0.30;;
36449;SDS011;22475;51.390;7.180;2022-10-15T13:22:22;1.83;;;0.22;;
36449;SDS011;22475;51.390;7.180;2022-10-15T13:24:50;0.40;;;0.30;;
36449;SDS011;22475;51.390;7.180;2022-10-15T13:27:21;1.13;;;0.40;;
36449;SDS011;22475;51.390;7.180;2022-10-15T13:29:53;1.40;;;0.73;;
36449;SDS011;22475;51.390;7.180;2022-10-15T13:32:22;0.32;;;0.30;;
36449;SDS011;22475;51.390;7.180;2022-10-15T13:34:50;25.83;;;1.25;;
36449;SDS011;22475;51.390;7.180;2022-10-15T13:37:18;10.00;;;1.02;;
36449;SDS011;22475;51.390;7.180;2022-10-15T13:39:50;12.63;;;0.93;;
36449;SDS011;22475;51.390;7.180;2022-10-15T13:42:19;22.40;;;1.55;;
36449;SDS011;22475;51.390;7.180;2022-10-15T13:44:58;24.52;;;1.27;;
36449;SDS011;22475;51.390;7.180;2022-10-15T13:47:30;22.83;;;1.08;;
36449;SDS011;22475;51.390;7.180;2022-10-15T13:50:12;19.20;;;0.63;;
36449;SDS011;22475;51.390;7.180;2022-10-15T13:52:45;10.27;;;0.57;;
36449;SDS011;22475;51.390;7.180;2022-10-15T13:55:24;6.53;;;0.47;;
36449;SDS011;22475;51.390;7.180;2022-10-15T13:58:02;10.45;;;1.13;;
36449;SDS011;22475;51.390;7.180;2022-10-15T14:00:33;4.05;;;0.30;;
36449;SDS011;22475;51.390;7.180;2022-10-15T14:03:08;1.63;;;0.40;;
36449;SDS011;22475;51.390;7.180;2022-10-15T14:05:40;3.15;;;0.40;;
36449;SDS011;22475;51.390;7.180;2022-10-15T14:08:14;13.48;;;0.47;;
36449;SDS011;22475;51.390;7.180;2022-10-15T14:10:43;0.47;;;0.22;;
36449;SDS011;22475;51.390;7.180;2022-10-15T14:13:11;4.35;;;0.30;;
36449;SDS011;22475;51.390;7.180;2022-10-15T14:15:40;0.57;;;0.57;;
36449;SDS011;22475;51.390;7.180;2022-10-15T14:18:09;3.55;;;0.40;;
36449;SDS011;22475;51.390;7.180;2022-10-15T14:20:37;1.25;;;0.40;;
36449;SDS011;22475;51.390;7.180;2022-10-15T14:23:12;3.65;;;0.57;;
36449;SDS011;22475;51.390;7.180;2022-10-15T14:25:41;0.82;;;0.68;;
36449;SDS011;22475;51.390;7.180;2022-10-15T14:28:15;3.65;;;0.28;;
36449;SDS011;22475;51.390;7.180;2022-10-15T14:30:46;2.35;;;0.30;;
36449;SDS011;22475;51.390;7.180;2022-10-15T14:33:27;0.50;;;0.47;;
36449;SDS011;22475;51.390;7.180;2022-10-15T14:36:02;3.83;;;0.60;;
36449;SDS011;22475;51.390;7.180;2022-10-15T14:38:33;0.40;;;0.40;;
36449;SDS011;22475;51.390;7.180;2022-10-15T14:41:00;2.15;;;0.40;;
36449;SDS011;22475;51.390;7.180;2022-10-15T14:43:32;0.52;;;0.52;;
36449;SDS011;22475;51.390;7.180;2022-10-15T14:46:02;0.47;;;0.40;;
36449;SDS011;22475;51.390;7.180;2022-10-15T14:48:31;0.60;;;0.60;;
36449;SDS011;22475;51.390;7.180;2022-10-15T14:51:02;1.73;;;1.60;;
36449;SDS011;22475;51.390;7.180;2022-10-15T14:53:31;1.50;;;1.40;;
36449;SDS011;22475;51.390;7.180;2022-10-15T14:56:01;7.28;;;5.80;;
36449;SDS011;22475;51.390;7.180;2022-10-15T14:58:32;6.53;;;2.78;;
36449;SDS011;22475;51.390;7.180;2022-10-15T15:00:59;4.63;;;2.25;;
36449;SDS011;22475;51.390;7.180;2022-10-15T15:03:29;6.95;;;3.15;;
36449;SDS011;22475;51.390;7.180;2022-10-15T15:06:03;6.47;;;3.17;;
36449;SDS011;22475;51.390;7.180;2022-10-15T15:08:30;7.13;;;5.40;;
36449;SDS011;22475;51.390;7.180;2022-10-15T15:10:59;12.95;;;6.78;;
36449;SDS011;22475;51.390;7.180;2022-10-15T15:13:28;5.17;;;4.63;;
36449;SDS011;22475;51.390;7.180;2022-10-15T15:15:57;9.45;;;6.07;;
36449;SDS011;22475;51.390;7.180;2022-10-15T15:18:25;7.40;;;5.28;;
36449;SDS011;22475;51.390;7.180;2022-10-15T15:20:52;11.15;;;6.20;;
36449;SDS011;22475;51.390;7.180;2022-10-15T15:23:22;4.72;;;4.22;;
36449;SDS011;22475;51.390;7.180;2022-10-15T15:25:51;10.35;;;4.85;;
36449;SDS011;22475;51.390;7.180;2022-10-15T15:28:19;5.10;;;4.20;;
36449;SDS011;22475;51.390;7.180;2022-10-15T15:30:49;3.43;;;3.13;;